EDDNLOWS

Guest
Details From EDDN - Nurnberg
To LOWS - Salzburg Maxglan
Flight Number -
Tags Generated
Created
Modified
Stats Distance 128 nm / 236 km
Max Altitude 0 ft / 0 m
Waypoints 3
Social Downloads 0
Likes 0
Share VATSIM

Download

Looking for another format? Having issues loading an existing format? Contact us
Advertisement - Login to hide

Notes

Generated

Route

EDDN TAKUS LOWS

ID Type Via Altitude Latitude Longitude Leg Dist Tot Dist Heading (true) Name
O EDDN APT - 0 ft / 0 m 49.50055˚ 11.05918˚ - 0 nm - -
TAKUS FIX - 0 ft / 0 m 47.95589˚ 12.81823˚ 116 nm 116 nm 142° / 144° -
O LOWS APT - 0 ft / 0 m 47.80472˚ 12.99717˚ 11 nm 127 nm 141° / 142° -

Altitude Profile

Advertisement - Login to hide

EDDN

Details ICAO EDDN (NUE)
Name Nurnberg
Region Germany - Civil
Timezone Europe/Berlin (UTC+2.0)
Stats Elevation 1,045 ft / 319 m (AMSL)
Location 49.498744° 11.077580°
Runways 1
Magnetic Variation 3.074° E

METAR

EDDN 240820Z 03003KT 360V070 7000 -SHRA FEW003 SCT020TCU BKN060 15/15 Q1019 RESHRA NOSIG

Decode

TAF

TAF AMD EDDN 240613Z 2406/2506 12005KT 9999 SCT020 BKN040 TEMPO 2406/2409 3500 +SHRA BKN012 BKN020CB PROB40 TEMPO 2406/2420 14015G25KT TSRA BKN030CB BECMG 2416/2418 VRB02KT TEMPO 2420/2424 RA BKN014 TEMPO 2500/2506 4000 BR BKN008

Decode

Departure Runways

ID Width Length Bearing (true) Bearing (mag) Surface Threshold Offset Overrun Length
10 148 ft / 45 m 8,819 ft / 2,688 m 98.60° 95.53° Asphalt 0 ft / 0 m 0 ft / 0 m
28 148 ft / 45 m 8,819 ft / 2,688 m 278.63° 275.56° Asphalt 0 ft / 0 m 0 ft / 0 m

LOWS

Details ICAO LOWS (SZG)
Name Salzburg Maxglan
Region Austria
Timezone Europe/Vienna (UTC+2.0)
Stats Elevation 1,411 ft / 430 m (AMSL)
Location 47.793333° 13.004333°
Runways 1
Magnetic Variation 3.480° E

METAR

LOWS 240820Z VRB01KT 9999 FEW016 BKN100 18/14 Q1019 NOSIG

Decode

TAF

TAF LOWS 240515Z 2406/2506 VRB02KT 9999 FEW020 SCT080 BKN200 TX22/2414Z TN13/2503Z BECMG 2407/2409 34006KT TEMPO 2412/2420 15015G30KT 6000 TSRA SCT040CB BKN060 BECMG 2418/2420 15005KT

Decode

Destination Runways

ID Width Length Bearing (true) Bearing (mag) Surface Threshold Offset Overrun Length
16 148 ft / 45 m 9,024 ft / 2,751 m 157.08° 153.60° Concrete 656 ft / 200 m 0 ft / 0 m
34 148 ft / 45 m 9,024 ft / 2,751 m 337.09° 333.61° Concrete 787 ft / 240 m 0 ft / 0 m

Approach Navaids

Runway Type Ident Frequency Range Bearing (true) Bearing (mag) Slope Elevation
16 Localiser OES 109.90 MHz 18 nm / 33 km 157.53° 154.05° - 1,411 ft / 430 m (AMSL)
16 Glidescope OES 109.90 MHz 10 nm / 19 km 157.09° 153.61° 3.00° 1,446 ft / 441 m (AMSL)
16 DME OES 109.90 MHz 18 nm / 33 km - - - 1,446 ft / 441 m (AMSL)

Popular Alternatives